Terminal Aerodrome Forecast
Issued by NWS

Home | Current Version | Previous Version | Text Only | Print | Product List | Glossary On
Versions: 1 2 3 4 5 6 7 8 9 10 11 12 13 14 15 16 17 18 19 20 21 22 23 24 25 26 27
000
FTUS45 KVEF 282320
TAFLAS
TAF
KLAS 282320Z 2900/2924 07005KT P6SM FEW120
     FM290300 21006KT P6SM SKC
     FM291200 VRB05KT P6SM SKC
     FM291800 08005KT P6SM FEW120=

USA.gov is the U.S. government's official web portal to all federal, state and local government web resources and services.